createdAt,value
2018-11-29T00:00:36.817Z,75.41
2018-11-29T00:05:40.700Z,74.39
2018-11-29T00:10:43.897Z,74.83
2018-11-29T00:15:47.097Z,75.26
2018-11-29T00:20:50.253Z,74.53
2018-11-29T00:25:53.447Z,75.39
2018-11-29T00:30:56.721Z,74.77
2018-11-29T00:35:59.865Z,74.92
2018-11-29T00:41:03.060Z,74.58
2018-11-29T00:46:06.291Z,75.48
2018-11-29T00:51:09.456Z,74.81
2018-11-29T00:56:12.645Z,74.81
2018-11-29T01:01:15.792Z,74.77
2018-11-29T01:06:18.954Z,73.96
2018-11-29T01:11:22.180Z,74.61
2018-11-29T01:16:25.352Z,73.74
2018-11-29T01:21:28.629Z,74.66
2018-11-29T01:26:31.801Z,73.58
2018-11-29T01:31:35.500Z,74.54
2018-11-29T01:36:38.733Z,74.48
2018-11-29T01:41:41.952Z,74.10
2018-11-29T01:46:45.149Z,75.34
2018-11-29T01:51:48.288Z,75.58
2018-11-29T01:56:51.449Z,75.44
2018-11-29T02:01:54.615Z,74.84
2018-11-29T02:06:57.752Z,75.39
2018-11-29T02:12:00.992Z,75.42
2018-11-29T02:17:05.281Z,75.69
2018-11-29T02:22:08.516Z,75.88
2018-11-29T02:27:11.777Z,74.45
2018-11-29T02:32:14.921Z,74.67
2018-11-29T02:37:18.165Z,74.44
2018-11-29T02:42:21.343Z,74.82
2018-11-29T02:47:24.554Z,75.50
2018-11-29T02:52:27.712Z,76.13
2018-11-29T02:57:31.070Z,75.85
2018-11-29T03:02:34.217Z,76.57
2018-11-29T03:07:38.057Z,76.34
2018-11-29T03:12:41.714Z,76.96
2018-11-29T03:17:45.206Z,76.77
2018-11-29T03:22:48.360Z,76.58
2018-11-29T03:27:52.434Z,77.40
2018-11-29T03:32:55.677Z,76.48
2018-11-29T03:37:58.906Z,76.55
2018-11-29T03:43:02.155Z,76.95
2018-11-29T03:48:05.308Z,77.23
2018-11-29T03:53:08.492Z,77.93
2018-11-29T03:58:11.638Z,78.22
2018-11-29T04:03:14.781Z,78.59
2018-11-29T04:08:17.924Z,78.43
2018-11-29T04:13:21.068Z,79.38
2018-11-29T04:18:24.345Z,78.48
2018-11-29T04:23:27.507Z,78.69
2018-11-29T04:28:30.759Z,78.63
2018-11-29T04:33:33.903Z,79.01
2018-11-29T04:38:37.228Z,78.35
2018-11-29T04:43:40.493Z,78.31
2018-11-29T04:48:43.653Z,78.46
2018-11-29T04:53:46.829Z,78.75
2018-11-29T04:58:49.973Z,78.34
2018-11-29T05:03:54.078Z,78.10
2018-11-29T05:08:57.327Z,77.69
2018-11-29T05:14:01.456Z,77.56
2018-11-29T05:19:04.666Z,78.54
2018-11-29T05:24:07.872Z,77.65
2018-11-29T05:29:10.992Z,79.46
2018-11-29T05:34:14.402Z,79.92
2018-11-29T05:39:18.209Z,79.21
2018-11-29T05:44:21.366Z,78.69
2018-11-29T05:49:24.769Z,78.82
2018-11-29T05:54:27.978Z,79.45
2018-11-29T05:59:31.162Z,79.08
2018-11-29T06:04:34.553Z,78.63
2018-11-29T06:09:37.781Z,79.63
2018-11-29T06:14:40.965Z,79.33
2018-11-29T06:19:44.119Z,79.21
2018-11-29T06:24:47.820Z,80.68
2018-11-29T06:29:51.104Z,79.88
2018-11-29T06:34:54.328Z,80.93
2018-11-29T06:39:57.621Z,79.58
2018-11-29T06:45:00.821Z,79.47
2018-11-29T06:50:08.858Z,79.48
2018-11-29T06:55:16.063Z,78.77
2018-11-29T07:00:26.367Z,79.12
2018-11-29T07:05:29.532Z,79.83
2018-11-29T07:10:33.165Z,79.61
2018-11-29T07:15:36.381Z,79.60
2018-11-29T07:20:39.582Z,79.78
2018-11-29T07:25:42.793Z,78.57
2018-11-29T07:30:45.956Z,77.19
2018-11-29T07:35:49.118Z,77.98
2018-11-29T07:40:52.604Z,77.32
2018-11-29T07:45:55.752Z,76.33
2018-11-29T07:50:58.956Z,73.31
2018-11-29T07:56:02.140Z,74.70
2018-11-29T08:01:06.101Z,74.00
2018-11-29T08:06:09.288Z,73.46
2018-11-29T08:11:12.554Z,73.14
2018-11-29T08:16:15.858Z,73.83
2018-11-29T08:21:19.580Z,74.01
2018-11-29T08:26:22.799Z,73.09
2018-11-29T08:31:25.982Z,73.73
2018-11-29T08:36:29.196Z,72.95
2018-11-29T08:41:33.322Z,71.01
2018-11-29T08:46:36.532Z,71.51
2018-11-29T08:51:40.357Z,69.95
2018-11-29T08:56:43.838Z,69.59
2018-11-29T09:01:47.582Z,69.43
2018-11-29T09:06:50.816Z,67.58
2018-11-29T09:11:53.981Z,67.00
2018-11-29T09:16:57.329Z,66.50
2018-11-29T09:22:01.254Z,67.26
2018-11-29T09:27:04.664Z,67.61
2018-11-29T09:32:07.984Z,66.09
2018-11-29T09:37:11.286Z,66.95
2018-11-29T09:42:14.721Z,66.13
2018-11-29T09:47:17.901Z,64.47
2018-11-29T09:52:21.091Z,65.11
2018-11-29T09:57:24.321Z,65.46
2018-11-29T10:02:27.486Z,65.89
2018-11-29T10:07:30.721Z,65.31
2018-11-29T10:12:33.977Z,65.11
2018-11-29T10:17:37.207Z,63.45
2018-11-29T10:22:41.861Z,61.82
2018-11-29T10:27:47.812Z,62.39
2018-11-29T10:32:51.049Z,61.89
2018-11-29T10:37:54.237Z,59.89
2018-11-29T10:42:57.964Z,60.56
2018-11-29T10:48:01.125Z,61.28
2018-11-29T10:53:04.700Z,59.86
2018-11-29T10:58:07.886Z,58.58
2018-11-29T11:03:17.257Z,58.36
2018-11-29T11:08:21.034Z,56.06
2018-11-29T11:13:24.313Z,56.38
2018-11-29T11:18:27.606Z,56.93
2018-11-29T11:23:30.777Z,57.05
2018-11-29T11:28:34.017Z,55.21
2018-11-29T11:33:37.754Z,54.43
2018-11-29T11:38:40.976Z,53.73
2018-11-29T11:43:44.243Z,54.27
2018-11-29T11:48:47.430Z,54.71
2018-11-29T11:53:50.769Z,54.98
2018-11-29T11:58:54.086Z,52.88
2018-11-29T12:03:57.400Z,54.47
2018-11-29T12:09:00.721Z,52.19
2018-11-29T12:14:04.072Z,53.25
2018-11-29T12:19:07.299Z,54.50
2018-11-29T12:24:10.512Z,53.12
2018-11-29T12:29:14.564Z,50.09
2018-11-29T12:34:17.759Z,50.43
2018-11-29T12:39:21.625Z,49.80
2018-11-29T12:44:24.832Z,49.51
2018-11-29T12:49:27.983Z,47.37
2018-11-29T12:54:31.154Z,47.42
2018-11-29T12:59:35.346Z,46.67
2018-11-29T13:04:39.546Z,48.20
2018-11-29T13:09:42.729Z,48.88
2018-11-29T13:14:45.965Z,46.99
2018-11-29T13:19:49.159Z,46.41
2018-11-29T13:24:52.309Z,49.09
2018-11-29T13:29:55.504Z,50.50
2018-11-29T13:34:58.677Z,51.36
2018-11-29T13:40:01.894Z,50.72
2018-11-29T13:45:08.864Z,52.13
2018-11-29T13:50:14.466Z,52.62
2018-11-29T13:55:17.695Z,51.92
2018-11-29T14:00:22.314Z,51.97
2018-11-29T14:05:25.580Z,51.80
2018-11-29T14:10:28.742Z,51.93
2018-11-29T14:15:31.989Z,53.72
2018-11-29T14:20:35.511Z,53.85
2018-11-29T14:25:38.488Z,54.83
2018-11-29T14:30:41.647Z,55.69
2018-11-29T14:35:44.837Z,52.15
2018-11-29T14:40:47.975Z,51.93
2018-11-29T14:45:51.171Z,51.19
2018-11-29T14:50:54.394Z,51.84
2018-11-29T14:55:57.624Z,53.69
2018-11-29T15:01:00.861Z,52.67
2018-11-29T15:06:04.089Z,54.11
2018-11-29T15:11:07.305Z,51.78
2018-11-29T15:16:10.552Z,52.57
2018-11-29T15:21:13.737Z,53.57
2018-11-29T15:26:16.953Z,53.30
2018-11-29T15:31:20.176Z,53.53
2018-11-29T15:36:23.410Z,55.22
2018-11-29T15:41:26.634Z,59.42
2018-11-29T15:46:29.833Z,59.31
2018-11-29T15:51:33.022Z,60.04
2018-11-29T15:56:36.272Z,60.78
2018-11-29T16:01:39.483Z,60.48
2018-11-29T16:06:42.710Z,61.29
2018-11-29T16:11:45.978Z,62.20
2018-11-29T16:16:49.181Z,62.32
2018-11-29T16:21:52.394Z,62.94
2018-11-29T16:26:55.541Z,61.91
2018-11-29T16:31:58.782Z,62.12
2018-11-29T16:37:02.051Z,62.59
2018-11-29T16:42:05.424Z,61.67
2018-11-29T16:47:08.629Z,61.55
2018-11-29T16:52:11.922Z,61.41
2018-11-29T16:57:15.126Z,62.00
2018-11-29T17:02:18.357Z,60.95
2018-11-29T17:07:21.649Z,61.30
2018-11-29T17:12:24.832Z,63.10
2018-11-29T17:17:28.078Z,61.57
2018-11-29T17:22:31.336Z,61.96
2018-11-29T17:27:34.626Z,63.51
2018-11-29T17:32:37.856Z,63.98
2018-11-29T17:37:41.133Z,64.06
2018-11-29T17:42:44.363Z,64.36
2018-11-29T17:47:48.365Z,65.39
2018-11-29T17:52:51.627Z,64.65
2018-11-29T17:57:54.914Z,65.23
2018-11-29T18:02:58.233Z,65.64
2018-11-29T18:08:01.505Z,67.37
2018-11-29T18:13:09.949Z,66.51
2018-11-29T18:18:13.406Z,67.59
2018-11-29T18:23:16.703Z,67.39
2018-11-29T18:28:19.995Z,68.57
2018-11-29T18:33:23.218Z,68.17
2018-11-29T18:38:26.467Z,68.74
2018-11-29T18:43:29.692Z,68.40
2018-11-29T18:48:32.929Z,68.90
2018-11-29T18:53:36.206Z,69.53
2018-11-29T18:58:41.301Z,69.17
2018-11-29T19:03:45.378Z,69.24
2018-11-29T19:08:48.721Z,69.89
2018-11-29T19:13:52.067Z,70.06
2018-11-29T19:18:55.465Z,69.28
2018-11-29T19:23:59.227Z,69.30
2018-11-29T19:29:02.648Z,69.01
2018-11-29T19:34:06.236Z,69.61
2018-11-29T19:39:09.733Z,69.51
2018-11-29T19:44:14.579Z,69.61
2018-11-29T19:49:17.865Z,69.97
2018-11-29T19:54:21.218Z,71.09
2018-11-29T19:59:24.578Z,70.89
2018-11-29T20:04:27.926Z,70.75
2018-11-29T20:09:31.261Z,70.60
2018-11-29T20:14:34.692Z,71.66
2018-11-29T20:19:38.073Z,71.76
2018-11-29T20:24:41.396Z,71.92
2018-11-29T20:29:44.678Z,72.32
2018-11-29T20:34:47.970Z,71.99
2018-11-29T20:39:51.379Z,72.92
2018-11-29T20:44:54.667Z,72.58
2018-11-29T20:49:57.951Z,72.74
2018-11-29T20:55:01.289Z,72.48
2018-11-29T21:00:09.918Z,73.59
2018-11-29T21:05:16.134Z,72.93
2018-11-29T21:10:22.233Z,73.42
2018-11-29T21:15:25.603Z,73.27
2018-11-29T21:20:28.912Z,73.97
2018-11-29T21:25:32.134Z,74.18
2018-11-29T21:30:35.494Z,74.50
2018-11-29T21:35:38.915Z,74.93
2018-11-29T21:41:00.969Z,74.47
2018-11-29T21:46:04.258Z,74.68
2018-11-29T21:51:08.340Z,74.69
2018-11-29T21:56:11.588Z,75.59
2018-11-29T22:01:14.881Z,74.96
2018-11-29T22:06:18.076Z,75.36
2018-11-29T22:11:21.312Z,76.04
2018-11-29T22:16:24.560Z,76.54
2018-11-29T22:21:27.793Z,76.81
2018-11-29T22:26:31.073Z,77.01
2018-11-29T22:31:34.301Z,77.07
2018-11-29T22:36:37.477Z,77.15
2018-11-29T22:41:47.456Z,76.55
2018-11-29T22:46:50.744Z,76.85
2018-11-29T22:51:53.981Z,76.61
2018-11-29T22:56:57.201Z,77.03
2018-11-29T23:02:00.440Z,77.67
2018-11-29T23:07:03.695Z,76.77
2018-11-29T23:12:06.853Z,76.75
2018-11-29T23:17:10.332Z,77.76
2018-11-29T23:22:13.645Z,78.03
2018-11-29T23:27:16.846Z,78.15
2018-11-29T23:32:20.141Z,76.59
2018-11-29T23:37:23.347Z,77.58
2018-11-29T23:42:26.515Z,78.20
2018-11-29T23:47:29.696Z,78.84
2018-11-29T23:52:32.854Z,79.02
2018-11-29T23:57:36.036Z,78.79
